Latest Weather Observations for Esperance

IDW60801

Issued at 11:02 pm WST Thursday 3 September 2015 (issued every 30 minutes, with the page automatically refreshed every 10 minutes)

About weather observations | Map of weather stations | Latest weather observations for WA | Other Formats
Station Details ID: 009789 Name: ESPERANCE Lat: -33.83 Lon: 121.89 Height: 25.0 m
Data from the previous 72 hours. | See also: Recent months at Esperance
Date/Time
WST
Temp
°C
App
Temp
°C
Dew
Point
Rel
Hum
%
Delta-T
°C
Wind Press
QNH
hPa
Press
MSL
hPa
Rain
since 9 am
mm
Dir
 
Spd
km/h
Gust
km/h
Spd
kts
Gust
kts
03/11:00pm 11.1 7.6 7.3 77 1.8 NE 15 24 8 13 1022.7 1022.7 0.0
03/10:30pm 10.9 7.8 7.3 78 1.7 NE 13 20 7 11 1023.0 1023.0 0.0
03/10:00pm 11.1 7.7 7.6 79 1.7 ENE 15 22 8 12 1023.3 1023.3 0.0
03/09:30pm 11.3 8.3 7.8 79 1.7 ENE 13 22 7 12 1023.7 1023.7 0.0
03/09:00pm 11.8 8.4 7.7 76 2.0 NE 15 24 8 13 1024.2 1024.2 0.0
03/08:30pm 11.9 9.0 8.2 78 1.8 ENE 13 19 7 10 1024.6 1024.6 0.0
03/08:00pm 12.0 9.3 9.0 82 1.5 E 13 17 7 9 1024.7 1024.7 0.0
03/07:30pm 12.2 10.0 9.2 82 1.5 E 11 17 6 9 1024.8 1024.8 0.0
03/07:00pm 12.8 10.2 9.2 79 1.8 E 13 24 7 13 1024.8 1024.8 0.0
03/06:30pm 13.2 10.6 9.5 78 1.9 ESE 13 20 7 11 1024.7 1024.7 0.0
03/06:00pm 13.4 9.3 8.6 73 2.4 ESE 20 32 11 17 1024.4 1024.4 0.0
03/05:30pm 13.6 8.7 8.6 72 2.5 ESE 24 32 13 17 1024.2 1024.2 0.0
03/05:00pm 14.2 9.2 8.2 67 3.0 ESE 24 32 13 17 1024.2 1024.2 0.0
03/04:30pm 14.9 10.7 8.3 64 3.3 SE 20 32 11 17 1024.3 1024.3 0.0
03/04:00pm 15.4 11.3 8.5 63 3.5 SE 20 30 11 16 1024.5 1024.5 0.0
03/03:30pm 14.8 10.5 8.0 64 3.4 SE 20 28 11 15 1024.5 1024.5 0.0
03/03:00pm 15.6 11.5 8.5 62 3.6 SE 20 28 11 15 1024.1 1024.1 0.0
03/02:30pm 17.5 14.3 5.2 44 5.9 N 11 19 6 10 1024.0 1024.0 0.0
03/02:00pm 16.7 12.6 4.3 43 5.8 NNE 15 24 8 13 1023.9 1023.9 0.0
03/01:30pm 17.3 13.2 4.3 42 6.1 N 15 19 8 10 1024.4 1024.4 0.0
03/01:00pm 18.0 14.2 5.6 44 6.0 NNE 15 20 8 11 1024.6 1024.6 0.0
03/12:30pm 16.8 13.3 5.3 46 5.5 NNE 13 20 7 11 1025.2 1025.2 0.0
03/12:00pm 15.8 11.9 5.5 50 4.9 N 15 24 8 13 1025.8 1025.8 0.0
03/11:30am 16.5 11.8 5.1 47 5.4 N 19 26 10 14 1026.5 1026.5 0.0
03/11:00am 15.1 11.4 6.1 55 4.3 NNE 15 22 8 12 1027.0 1027.0 0.0
03/10:30am 14.6 10.5 6.0 56 4.1 NNE 17 24 9 13 1027.2 1027.2 0.0
03/10:00am 13.6 10.1 7.4 66 3.0 NNE 15 20 8 11 1027.7 1027.7 0.0
03/09:30am 12.1 8.4 7.8 75 2.1 NNE 17 22 9 12 1028.1 1028.1 0.0
03/09:00am 12.1 8.8 8.2 77 1.9 N 15 20 8 11 1028.5 1028.5 0.0
03/08:30am 10.8 8.3 8.1 83 1.3 N 11 15 6 8 1028.5 1028.5 0.0
03/08:00am 8.5 6.1 7.0 90 0.7 NNE 9 15 5 8 1028.4 1028.4 0.0
03/07:30am 6.9 3.9 6.0 94 0.4 N 11 17 6 9 1028.2 1028.2 0.0
03/07:00am 5.9 2.4 5.4 97 0.2 N 13 15 7 8 1028.1 1028.1 0.0
03/06:30am 4.7 1.8 4.5 99 0.1 N 9 9 5 5 1027.8 1027.8 0.0
03/06:00am 4.3 1.3 4.1 99 0.1 N 9 11 5 6 1027.6 1027.6 0.0
03/05:30am 4.9 3.3 4.4 97 0.2 NNW 2 6 1 3 1027.4 1027.4 0.0
03/05:00am 4.8 2.3 4.6 99 0.1 NNW 7 9 4 5 1027.2 1027.2 0.0
03/04:30am 4.8 1.9 4.6 99 0.1 N 9 11 5 6 1026.9 1026.9 0.0
03/04:00am 5.4 3.0 5.2 99 0.1 N 7 9 4 5 1026.8 1026.8 0.0
03/03:30am 5.4 3.0 5.2 99 0.1 NNW 7 9 4 5 1026.6 1026.6 0.0
03/03:00am 6.2 4.5 5.7 97 0.2 NNE 4 7 2 4 1026.5 1026.5 0.0
03/02:30am 6.0 3.3 5.8 99 0.1 NNE 9 11 5 6 1026.7 1026.7 0.0
03/02:00am 5.7 2.9 5.2 97 0.2 N 9 9 5 5 1027.0 1027.0 0.0
03/01:30am 6.5 5.5 5.8 95 0.3 CALM 0 0 0 0 1027.2 1027.2 0.0
03/01:00am 6.5 5.6 6.1 97 0.2 CALM 0 0 0 0 1027.2 1027.2 0.0
03/12:30am 6.5 4.3 6.1 97 0.2 N 7 7 4 4 1027.4 1027.4 0.0
03/12:00am 6.9 4.8 6.5 97 0.2 N 7 9 4 5 1027.7 1027.7 0.0
 
Date/Time
WST
Temp
°C
App
Temp
°C
Dew
Point
Rel
Hum
%
Delta-T
°C
Wind Press
QNH
hPa
Press
MSL
hPa
Rain
since 9 am
mm
Dir
 
Spd
km/h
Gust
km/h
Spd
kts
Gust
kts
02/11:30pm 7.3 5.2 6.6 95 0.3 NE 7 11 4 6 1027.8 1027.8 0.0
02/11:00pm 7.5 5.4 6.8 95 0.3 WNW 7 9 4 5 1027.7 1027.7 0.0
02/10:30pm 7.8 5.8 6.9 94 0.4 WNW 7 9 4 5 1027.7 1027.7 0.0
02/10:00pm 8.4 6.4 7.1 91 0.6 WNW 7 9 4 5 1027.9 1027.9 0.0
02/09:30pm 9.0 7.1 7.5 90 0.7 SW 7 9 4 5 1027.9 1027.9 0.0
02/09:00pm 9.0 7.1 7.5 90 0.7 NW 7 7 4 4 1028.1 1028.1 0.0
02/08:30pm 9.3 7.4 7.6 89 0.8 N 7 9 4 5 1027.8 1027.8 0.0
02/08:00pm 9.4 8.9 7.7 89 0.8 CALM 0 0 0 0 1027.6 1027.6 0.0
02/07:30pm 9.6 7.6 7.3 85 1.1 N 7 9 4 5 1027.3 1027.3 0.0
02/07:00pm 9.8 7.8 7.0 83 1.3 NNE 7 9 4 5 1027.0 1027.0 0.0
02/06:30pm 11.2 7.8 5.8 69 2.5 SE 13 19 7 10 1026.8 1026.8 0.0
02/06:00pm 11.0 7.7 6.5 74 2.1 SSE 13 19 7 10 1026.5 1026.5 0.0
02/05:30pm 11.0 6.8 7.4 78 1.7 SSE 19 24 10 13 1026.1 1026.1 0.0
02/05:00pm 11.6 8.2 5.8 67 2.7 SSE 13 19 7 10 1025.8 1025.8 0.0
02/04:30pm 12.1 7.6 5.9 66 2.9 SSE 19 24 10 13 1025.6 1025.6 0.0
02/04:00pm 12.2 7.8 6.7 69 2.6 SSE 19 24 10 13 1025.4 1025.4 0.0
02/03:30pm 12.4 8.8 5.0 60 3.4 SSE 13 17 7 9 1025.3 1025.3 0.0
02/03:00pm 11.8 8.4 6.0 67 2.7 SSE 13 19 7 10 1025.4 1025.4 0.0
02/02:30pm 10.9 6.8 8.0 82 1.4 S 19 26 10 14 1025.7 1025.7 0.0
02/02:19pm 10.7 5.4 8.4 86 1.1 SSE 26 37 14 20 1025.6 1025.6 0.0
02/02:00pm 13.4 9.2 5.5 59 3.7 S 17 26 9 14 1025.4 1025.4 0.0
02/01:30pm 12.5 9.4 5.4 62 3.3 SSE 11 17 6 9 1025.5 1025.5 0.0
02/01:00pm 12.7 7.2 4.0 55 3.9 SSE 22 28 12 15 1025.5 1025.5 0.0
02/12:30pm 13.7 8.7 3.7 51 4.5 SSE 19 26 10 14 1025.7 1025.7 0.0
02/12:00pm 12.5 7.3 3.5 54 4.0 S 20 32 11 17 1025.9 1025.9 0.0
02/11:30am 13.2 8.1 3.3 51 4.4 S 19 30 10 16 1026.1 1026.1 0.0
02/11:00am 14.1 8.2 1.9 43 5.3 SSE 22 35 12 19 1026.3 1026.3 0.0
02/10:30am 12.8 7.3 2.1 48 4.6 SSE 20 30 11 16 1026.2 1026.2 0.0
02/10:00am 12.5 7.6 4.0 56 3.8 S 19 28 10 15 1026.3 1026.3 0.0
02/09:30am 13.3 9.0 3.1 50 4.5 S 15 24 8 13 1026.2 1026.2 0.0
02/09:00am 12.1 6.8 3.2 54 3.9 S 20 30 11 16 1025.9 1025.9 2.2
02/08:30am 12.1 6.5 3.5 55 3.8 S 22 32 12 17 1025.7 1025.7 2.2
02/08:00am 10.6 5.9 5.3 70 2.4 SSE 19 28 10 15 1025.6 1025.6 2.2
02/07:30am 11.4 6.7 5.0 65 2.9 S 19 24 10 13 1024.9 1024.9 2.2
02/07:00am 10.0 5.7 5.1 71 2.2 S 17 22 9 12 1024.7 1024.7 2.2
02/06:30am 10.0 7.6 5.4 73 2.1 SW 7 15 4 8 1024.4 1024.4 2.2
02/06:00am 9.7 6.3 5.8 77 1.8 SSE 13 20 7 11 1024.1 1024.1 2.2
02/05:30am 10.2 5.7 4.3 67 2.6 S 17 26 9 14 1023.8 1023.8 2.2
02/05:00am 10.7 6.2 4.2 64 2.9 S 17 24 9 13 1023.5 1023.5 2.2
02/04:30am 10.7 6.1 3.9 63 3.0 SSW 17 28 9 15 1023.3 1023.3 2.2
02/04:00am 10.2 7.0 5.1 70 2.3 SW 11 19 6 10 1023.0 1023.0 2.2
02/03:30am 10.3 6.3 4.7 68 2.5 S 15 20 8 11 1022.7 1022.7 2.2
02/03:00am 9.9 6.4 5.3 73 2.1 S 13 20 7 11 1022.9 1022.9 2.2
02/02:35am 9.2 6.3 6.4 83 1.3 SW 11 17 6 9 1022.9 1022.9 2.2
02/02:30am 9.0 5.4 6.6 85 1.1 SW 15 24 8 13 1022.9 1022.9 2.2
02/02:19am 9.0 4.0 6.6 85 1.1 SSW 22 37 12 20 1023.1 1023.1 2.0
02/02:00am 10.4 6.6 3.8 63 2.9 SSW 13 20 7 11 1022.8 1022.8 1.8
02/01:30am 10.3 6.3 4.7 68 2.5 S 15 19 8 10 1022.9 1022.9 1.8
02/01:00am 10.4 5.9 4.1 65 2.8 SSW 17 24 9 13 1022.8 1022.8 1.8
02/12:30am 10.3 6.4 3.4 62 3.0 SSW 13 24 7 13 1022.8 1022.8 1.8
02/12:00am 10.1 6.1 3.1 62 3.0 SSW 13 19 7 10 1022.7 1022.7 1.8
 
Date/Time
WST
Temp
°C
App
Temp
°C
Dew
Point
Rel
Hum
%
Delta-T
°C
Wind Press
QNH
hPa
Press
MSL
hPa
Rain
since 9 am
mm
Dir
 
Spd
km/h
Gust
km/h
Spd
kts
Gust
kts
01/11:30pm 10.2 4.1 4.9 69 2.4 SSW 26 37 14 20 1022.8 1022.8 1.8
01/11:00pm 11.0 5.6 2.3 55 3.7 S 20 32 11 17 1022.6 1022.6 1.8
01/10:30pm 10.3 6.1 3.9 64 2.8 S 15 20 8 11 1022.8 1022.8 1.8
01/10:00pm 10.7 4.9 4.2 64 2.9 S 24 35 13 19 1022.7 1022.7 1.8
01/09:30pm 10.1 5.8 3.1 62 3.0 SW 15 22 8 12 1022.7 1022.7 1.8
01/09:00pm 10.6 5.5 2.9 59 3.3 SSW 19 43 10 23 1022.5 1022.5 1.8
01/08:30pm 11.2 5.6 1.4 51 4.1 SSW 20 30 11 16 1022.2 1022.2 1.8
01/08:00pm 10.9 4.6 1.6 52 3.9 S 24 39 13 21 1021.9 1021.9 1.8
01/07:30pm 11.1 4.6 0.0 46 4.5 SSW 24 37 13 20 1021.3 1021.3 1.8
01/07:00pm 10.8 5.3 2.1 55 3.7 SSW 20 35 11 19 1021.0 1021.0 1.8
01/06:30pm 10.9 4.8 2.8 57 3.5 S 24 35 13 19 1020.5 1020.5 1.8
01/06:00pm 10.9 4.5 1.0 50 4.1 SSW 24 35 13 19 1020.0 1019.9 1.8
01/05:37pm 11.1 4.1 1.9 53 3.9 SSW 28 43 15 23 1019.6 1019.5 1.8
01/05:30pm 11.1 4.8 1.6 52 4.0 S 24 39 13 21 1019.5 1019.4 1.8
01/05:00pm 11.1 3.7 1.6 52 4.0 SSW 30 43 16 23 1019.0 1018.9 1.8
01/04:39pm 11.0 4.0 1.8 53 3.9 SSW 28 46 15 25 1018.8 1018.7 1.8
01/04:30pm 10.2 4.7 4.1 66 2.7 SSW 22 44 12 24 1018.7 1018.6 1.8
01/04:00pm 11.4 5.3 2.6 54 3.8 SSW 24 37 13 20 1018.3 1018.2 1.6
01/03:30pm 12.0 4.1 1.3 48 4.5 S 32 52 17 28 1017.7 1017.6 1.6
01/03:00pm 12.0 4.1 2.0 50 4.3 SSW 33 50 18 27 1017.7 1017.6 1.6
01/02:37pm 12.1 5.2 2.7 52 4.1 S 28 48 15 26 1017.2 1017.1 1.6
01/02:30pm 11.8 5.5 3.7 57 3.6 SSW 26 37 14 20 1017.1 1017.0 1.6
01/02:00pm 11.1 5.4 4.9 65 2.8 SW 24 41 13 22 1017.0 1016.9 1.6
01/01:30pm 11.2 3.3 4.5 63 3.0 SSW 35 61 19 33 1016.3 1016.2 1.6
01/01:00pm 12.7 4.7 1.8 47 4.7 SSW 33 50 18 27 1016.0 1015.9 1.6
01/12:30pm 11.1 3.7 3.9 61 3.2 S 32 50 17 27 1016.0 1015.9 1.6
01/12:00pm 11.3 3.8 4.4 62 3.1 S 33 54 18 29 1015.8 1015.7 1.6
01/11:30am 11.5 4.2 4.4 61 3.2 SSW 32 52 17 28 1015.3 1015.3 1.6
01/11:01am 11.4 3.9 3.7 59 3.4 SSW 32 50 17 27 1015.2 1015.2 1.6
01/11:00am 11.5 4.6 4.4 61 3.2 SSW 30 46 16 25 1015.5 1015.4 1.6
01/10:30am 8.8 2.0 7.1 89 0.8 SSW 32 50 17 27 1015.1 1015.1 1.6
01/10:00am 8.8 0.5 6.0 82 1.3 S 39 65 21 35 1014.8 1014.8 0.6
01/09:56am 9.9 1.5 5.8 75 1.9 S 39 65 21 35 1014.6 1014.6 0.4
01/09:31am 9.8 3.7 6.8 81 1.4 S 28 46 15 25 1014.0 1014.0 0.4
01/09:30am 9.5 3.8 6.9 84 1.2 S 26 43 14 23 1014.1 1014.1 0.4
01/09:22am 8.8 3.0 6.4 85 1.1 SSW 26 41 14 22 1014.3 1014.3 0.4
01/09:11am 8.5 0.6 6.1 85 1.1 SSW 37 61 20 33 1014.4 1014.4 0.2
01/09:00am 9.6 1.7 6.1 79 1.6 SSW 37 59 20 32 1013.9 1013.9 32.8
01/08:30am 9.7 2.3 4.8 71 2.2 SSW 33 52 18 28 1013.4 1013.4 32.8
01/08:23am 9.2 2.8 5.4 77 1.7 SSW 28 52 15 28 1013.1 1013.1 32.8
01/08:16am 8.7 4.1 6.3 85 1.1 SSW 20 32 11 17 1013.3 1013.3 32.8
01/08:00am 7.7 0.4 5.5 86 1.0 SW 33 54 18 29 1013.2 1013.2 32.6
01/07:53am 8.0 0.8 5.8 86 1.0 SSW 33 54 18 29 1013.2 1013.2 32.4
01/07:42am 9.0 2.6 5.0 76 1.8 S 28 48 15 26 1012.7 1012.7 31.8
01/07:38am 8.9 2.8 4.6 74 1.9 S 26 48 14 26 1012.6 1012.6 31.8
01/07:30am 8.3 2.0 5.6 83 1.2 SSW 28 50 15 27 1012.6 1012.6 31.8
01/07:11am 8.5 2.1 5.4 81 1.4 SSW 28 50 15 27 1012.2 1012.2 31.4
01/07:00am 9.5 3.8 3.0 64 2.8 SW 22 39 12 21 1012.1 1012.1 31.0
01/06:30am 8.5 1.9 4.2 74 1.9 SSW 28 48 15 26 1011.7 1011.7 31.0
01/06:00am 8.3 2.0 5.6 83 1.2 SSW 28 48 15 26 1011.5 1011.5 31.0
01/05:58am 8.5 2.1 5.4 81 1.4 SSW 28 48 15 26 1011.4 1011.4 31.0
01/05:33am 7.1 2.5 5.8 91 0.6 W 19 37 10 20 1010.5 1010.5 30.2
01/05:30am 7.4 3.2 5.6 88 0.8 W 17 28 9 15 1010.7 1010.7 28.8
01/05:00am 7.2 1.3 5.9 91 0.6 WNW 26 39 14 21 1010.5 1010.5 28.8
01/04:30am 7.5 3.7 5.7 88 0.8 WSW 15 37 8 20 1010.1 1010.1 28.4
01/04:14am 7.8 2.0 6.3 90 0.7 WNW 26 39 14 21 1010.3 1010.3 28.4
01/04:00am 8.5 4.4 6.3 86 1.0 SSW 17 26 9 14 1009.9 1009.9 28.2
01/03:49am 8.2 4.8 6.0 86 1.0 SW 13 22 7 12 1009.9 1009.9 27.0
01/03:30am 8.3 3.0 4.9 79 1.5 WSW 22 39 12 21 1009.8 1009.8 26.2
01/03:15am 7.8 1.9 6.0 88 0.8 SW 26 43 14 23 1009.9 1009.9 26.2
01/03:00am 7.1 3.4 6.2 94 0.4 SW 15 28 8 15 1010.3 1010.3 24.6
01/02:52am 7.1 2.0 6.2 94 0.4 WNW 22 32 12 17 1010.1 1010.1 23.2
01/02:36am 7.0 2.0 6.3 95 0.3 WNW 22 35 12 19 1010.0 1010.0 22.0
01/02:30am 7.0 1.2 6.3 95 0.3 WNW 26 39 14 21 1010.2 1010.2 21.4
01/02:21am 7.3 2.3 6.4 94 0.4 WNW 22 37 12 20 1010.4 1010.4 20.2
01/02:00am 7.4 3.0 6.7 95 0.3 WNW 19 28 10 15 1010.3 1010.3 18.8
01/01:57am 7.4 3.0 6.7 95 0.3 WNW 19 28 10 15 1010.3 1010.3 18.6
01/01:38am 7.6 0.3 7.0 96 0.3 WNW 35 50 19 27 1010.7 1010.7 18.2
01/01:30am 7.7 0.0 7.1 96 0.3 NW 37 56 20 30 1010.1 1010.1 16.8
01/01:23am 7.9 2.0 7.3 96 0.3 NW 28 50 15 27 1010.3 1010.3 15.4
01/01:00am 8.0 2.0 6.9 93 0.5 WNW 28 43 15 23 1010.8 1010.8 14.4
01/12:47am 7.7 1.2 6.6 93 0.5 W 30 43 16 23 1010.9 1010.9 13.2
01/12:37am 8.2 2.3 7.3 94 0.4 WNW 28 41 15 22 1011.0 1011.0 12.2
01/12:32am 8.4 2.9 7.6 95 0.4 WNW 26 41 14 22 1011.0 1011.0 11.4
01/12:30am 8.5 3.4 7.7 95 0.4 WNW 24 39 13 21 1011.0 1011.0 10.8
01/12:01am 8.5 3.8 5.9 84 1.2 SW 20 32 11 17 1010.5 1010.5 10.4
01/12:00am 8.5 4.0 5.9 84 1.2 SW 19 32 10 17 1010.5 1010.5 10.4
 
Date/Time
WST
Temp
°C
App
Temp
°C
Dew
Point
Rel
Hum
%
Delta-T
°C
Wind Press
QNH
hPa
Press
MSL
hPa
Rain
since 9 am
mm
Dir
 
Spd
km/h
Gust
km/h
Spd
kts
Gust
kts
31/11:48pm 8.0 2.6 6.3 89 0.8 SSW 24 37 13 20 1010.6 1010.6 10.2
31/11:31pm 8.0 -0.6 6.5 90 0.7 W 41 78 22 42 1011.1 1011.1 8.8
31/11:30pm 8.0 -0.6 6.7 91 0.6 W 41 78 22 42 1011.0 1011.0 8.6
31/11:26pm 8.2 0.1 7.1 93 0.5 W 39 78 21 42 1010.7 1010.7 8.0
31/11:23pm 7.8 0.1 6.9 94 0.4 WNW 37 74 20 40 1010.9 1010.9 7.6
31/11:21pm 7.7 0.4 7.1 96 0.3 WNW 35 74 19 40 1011.0 1011.0 7.2
31/11:17pm 8.2 2.2 6.9 91 0.6 WNW 28 74 15 40 1010.5 1010.5 6.0
31/11:16pm 8.5 3.4 7.7 95 0.4 WNW 24 65 13 35 1010.5 1010.5 5.6

Other Formats:

Comma delimited format used in spreadsheet applications
http://www.bom.gov.au/fwo/IDW60801/IDW60801.94638.axf

JavaScript Object Notation format (JSON) in row-major order
http://www.bom.gov.au/fwo/IDW60801/IDW60801.94638.json